createdAt,value
2018-05-29T00:02:16.700Z,11.87
2018-05-29T00:04:47.845Z,8.47
2018-05-29T00:07:19.002Z,8.23
2018-05-29T00:09:49.565Z,9.17
2018-05-29T00:12:27.111Z,8.23
2018-05-29T00:14:59.205Z,7.80
2018-05-29T00:17:29.582Z,7.93
2018-05-29T00:19:59.981Z,7.93
2018-05-29T00:22:31.370Z,7.30
2018-05-29T00:25:01.762Z,10.47
2018-05-29T00:27:32.146Z,8.70
2018-05-29T00:30:03.534Z,7.00
2018-05-29T00:32:33.913Z,9.93
2018-05-29T00:35:04.306Z,10.47
2018-05-29T00:37:34.677Z,9.57
2018-05-29T00:40:05.047Z,10.07
2018-05-29T00:42:40.568Z,8.50
2018-05-29T00:45:11.660Z,7.17
2018-05-29T00:47:42.057Z,8.97
2018-05-29T00:50:12.447Z,37.17
2018-05-29T00:52:42.811Z,97.17
2018-05-29T00:55:40.780Z,70.73
2018-05-29T00:58:15.249Z,14.60
2018-05-29T01:00:45.616Z,13.93
2018-05-29T01:03:16.005Z,7.10
2018-05-29T01:05:47.133Z,6.63
2018-05-29T01:08:17.502Z,6.60
2018-05-29T01:10:47.903Z,9.37
2018-05-29T01:13:19.296Z,8.23
2018-05-29T01:15:49.659Z,6.70
2018-05-29T01:18:20.067Z,13.83
2018-05-29T01:20:52.479Z,7.03
2018-05-29T01:23:22.846Z,7.90
2018-05-29T01:25:53.259Z,10.50
2018-05-29T01:28:23.618Z,9.00
2018-05-29T01:31:01.110Z,6.20
2018-05-29T01:33:50.854Z,7.63
2018-05-29T01:36:21.233Z,7.13
2018-05-29T01:38:52.238Z,8.30
2018-05-29T01:41:22.597Z,7.27
2018-05-29T01:46:49.325Z,6.57
2018-05-29T01:49:19.725Z,7.77
2018-05-29T01:51:50.865Z,8.17
2018-05-29T01:54:22.002Z,5.80
2018-05-29T01:56:53.144Z,7.87
2018-05-29T01:59:23.510Z,6.50
2018-05-29T02:01:53.881Z,7.63
2018-05-29T02:04:25.329Z,7.57
2018-05-29T02:06:56.684Z,7.27
2018-05-29T02:09:27.828Z,10.27
2018-05-29T02:11:58.167Z,7.30
2018-05-29T02:14:29.308Z,6.27
2018-05-29T02:17:00.452Z,5.23
2018-05-29T02:19:31.617Z,6.80
2018-05-29T02:22:02.203Z,10.20
2018-05-29T02:24:32.590Z,6.50
2018-05-29T02:27:02.984Z,6.37
2018-05-29T02:29:34.113Z,7.53
2018-05-29T02:32:04.498Z,6.27
2018-05-29T02:34:34.880Z,8.90
2018-05-29T02:37:05.205Z,8.20
2018-05-29T02:39:35.565Z,8.00
2018-05-29T02:42:06.660Z,5.53
2018-05-29T02:44:37.028Z,8.77
2018-05-29T02:47:07.386Z,7.93
2018-05-29T02:49:43.921Z,9.07
2018-05-29T02:52:14.277Z,6.47
2018-05-29T02:55:06.092Z,7.97
2018-05-29T02:57:36.477Z,11.80
2018-05-29T03:00:07.601Z,5.83
2018-05-29T03:02:37.983Z,8.97
2018-05-29T03:05:08.356Z,6.07
2018-05-29T03:07:38.907Z,6.00
2018-05-29T03:10:10.063Z,8.97
2018-05-29T03:12:41.195Z,7.30
2018-05-29T03:15:11.556Z,8.77
2018-05-29T03:17:41.942Z,8.43
2018-05-29T03:20:12.310Z,7.60
2018-05-29T03:22:42.670Z,8.83
2018-05-29T03:25:13.062Z,9.23
2018-05-29T03:27:43.428Z,8.47
2018-05-29T03:30:13.798Z,7.60
2018-05-29T03:32:45.235Z,8.77
2018-05-29T03:35:16.253Z,9.60
2018-05-29T03:37:46.629Z,8.47
2018-05-29T03:40:16.960Z,8.83
2018-05-29T03:42:47.324Z,7.83
2018-05-29T03:45:17.705Z,6.90
2018-05-29T03:47:48.106Z,8.67
2018-05-29T03:50:19.240Z,10.20
2018-05-29T03:52:49.603Z,8.70
2018-05-29T03:55:19.991Z,6.47
2018-05-29T03:57:50.355Z,7.00
2018-05-29T04:00:20.717Z,8.03
2018-05-29T04:02:51.116Z,8.90
2018-05-29T04:05:21.431Z,10.77
2018-05-29T04:07:51.801Z,6.30
2018-05-29T04:10:22.375Z,8.90
2018-05-29T04:12:53.515Z,7.53
2018-05-29T04:15:24.644Z,6.60
2018-05-29T04:17:55.796Z,7.73
2018-05-29T04:20:26.941Z,8.17
2018-05-29T04:22:58.087Z,10.03
2018-05-29T04:25:29.251Z,10.00
2018-05-29T04:27:59.631Z,8.80
2018-05-29T04:30:29.992Z,9.07
2018-05-29T04:33:00.366Z,8.07
2018-05-29T04:35:32.447Z,7.50
2018-05-29T04:38:02.806Z,6.47
2018-05-29T04:40:33.958Z,7.50
2018-05-29T04:43:04.330Z,6.80
2018-05-29T04:45:34.702Z,8.70
2018-05-29T04:48:05.854Z,7.23
2018-05-29T04:50:36.223Z,9.17
2018-05-29T04:53:06.590Z,8.97
2018-05-29T04:55:38.770Z,10.97
2018-05-29T04:58:09.147Z,10.63
2018-05-29T05:00:39.518Z,37.90
2018-05-29T05:03:10.679Z,6.40
2018-05-29T05:05:41.040Z,7.57
2018-05-29T05:08:11.418Z,27.00
2018-05-29T05:10:41.806Z,6.77
2018-05-29T05:13:23.161Z,4.97
2018-05-29T05:16:00.712Z,8.37
2018-05-29T05:18:31.080Z,8.47
2018-05-29T05:21:03.489Z,9.97
2018-05-29T05:23:34.903Z,11.17
2018-05-29T05:26:05.946Z,10.30
2018-05-29T05:28:36.310Z,9.93
2018-05-29T05:31:06.648Z,13.47
2018-05-29T05:33:37.790Z,11.63
2018-05-29T05:36:08.156Z,16.37
2018-05-29T05:38:38.555Z,14.40
2018-05-29T05:41:09.690Z,13.80
2018-05-29T05:43:40.011Z,20.70
2018-05-29T05:46:13.458Z,18.20
2018-05-29T05:51:35.219Z,15.77
2018-05-29T05:54:07.571Z,15.97
2018-05-29T05:56:37.939Z,19.87
2018-05-29T05:59:08.333Z,17.30
2018-05-29T06:01:38.705Z,15.97
2018-05-29T06:04:09.080Z,17.60
2018-05-29T06:06:39.433Z,16.90
2018-05-29T06:09:09.803Z,17.57
2018-05-29T06:11:40.945Z,16.37
2018-05-29T06:14:12.101Z,15.40
2018-05-29T06:16:42.471Z,15.30
2018-05-29T06:19:12.842Z,15.47
2018-05-29T06:21:43.250Z,16.50
2018-05-29T06:24:14.392Z,20.35
2018-05-29T06:26:45.041Z,19.17
2018-05-29T06:29:16.215Z,14.33
2018-05-29T06:31:46.583Z,17.70
2018-05-29T06:34:17.741Z,18.13
2018-05-29T06:36:48.140Z,16.53
2018-05-29T06:39:18.511Z,16.53
2018-05-29T06:41:49.655Z,16.83
2018-05-29T06:44:20.810Z,17.57
2018-05-29T06:46:51.180Z,18.03
2018-05-29T06:49:40.670Z,16.27
2018-05-29T06:52:11.033Z,18.07
2018-05-29T06:54:42.164Z,14.70
2018-05-29T06:57:13.318Z,17.13
2018-05-29T06:59:44.454Z,16.63
2018-05-29T07:02:16.237Z,14.97
2018-05-29T07:04:46.640Z,12.77
2018-05-29T07:07:18.796Z,16.23
2018-05-29T07:09:49.158Z,14.67
2018-05-29T07:12:19.495Z,17.60
2018-05-29T07:14:49.870Z,17.40
2018-05-29T07:17:20.247Z,17.37
2018-05-29T07:19:50.675Z,15.40
2018-05-29T07:22:21.783Z,18.57
2018-05-29T07:24:52.925Z,18.57
2018-05-29T07:27:24.094Z,18.70
2018-05-29T07:29:55.484Z,20.07
2018-05-29T07:32:25.848Z,18.57
2018-05-29T07:34:56.262Z,18.37
2018-05-29T07:37:26.631Z,17.03
2018-05-29T07:39:57.006Z,17.37
2018-05-29T07:42:27.392Z,18.80
2018-05-29T07:44:59.802Z,20.77
2018-05-29T07:47:30.112Z,19.47
2018-05-29T07:50:00.507Z,19.17
2018-05-29T07:52:30.877Z,19.40
2018-05-29T07:55:01.243Z,18.33
2018-05-29T07:57:31.631Z,16.93
2018-05-29T08:00:02.014Z,31.50
2018-05-29T08:02:32.397Z,21.13
2018-05-29T08:05:02.799Z,21.03
2018-05-29T08:07:33.171Z,19.67
2018-05-29T08:10:03.544Z,20.80
2018-05-29T08:12:38.032Z,17.63
2018-05-29T08:15:08.398Z,17.97
2018-05-29T08:17:38.766Z,17.30
2018-05-29T08:20:09.189Z,16.87
2018-05-29T08:22:40.323Z,16.90
2018-05-29T08:25:12.754Z,15.50
2018-05-29T08:27:46.908Z,14.53
2018-05-29T08:30:17.285Z,15.73
2018-05-29T08:32:48.637Z,16.97
2018-05-29T08:35:26.162Z,16.60
2018-05-29T08:37:56.541Z,13.13
2018-05-29T08:40:26.942Z,12.73
2018-05-29T08:42:57.791Z,14.67
2018-05-29T08:45:28.169Z,12.60
2018-05-29T08:47:58.543Z,13.33
2018-05-29T08:50:29.721Z,12.67
2018-05-29T08:53:02.139Z,14.90
2018-05-29T08:55:32.460Z,16.00
2018-05-29T08:58:02.855Z,16.07
2018-05-29T09:00:40.542Z,14.57
2018-05-29T09:03:12.994Z,17.13
2018-05-29T09:05:44.384Z,16.40
2018-05-29T09:08:14.762Z,13.13
2018-05-29T09:10:45.147Z,13.77
2018-05-29T09:13:15.457Z,15.40
2018-05-29T09:16:05.179Z,14.07
2018-05-29T09:18:35.534Z,14.23
2018-05-29T09:21:05.904Z,13.87
2018-05-29T09:23:36.296Z,12.10
2018-05-29T09:26:06.718Z,11.67
2018-05-29T09:28:37.325Z,11.00
2018-05-29T09:31:07.742Z,11.00
2018-05-29T09:33:39.074Z,11.90
2018-05-29T09:36:10.325Z,8.70
2018-05-29T09:38:40.710Z,12.70
2018-05-29T09:41:11.087Z,11.97
2018-05-29T09:43:41.445Z,10.77
2018-05-29T09:46:11.840Z,11.87
2018-05-29T09:48:42.206Z,10.67
2018-05-29T09:51:12.601Z,10.53
2018-05-29T09:53:43.775Z,10.13
2018-05-29T09:56:14.787Z,8.47
2018-05-29T09:58:45.864Z,8.47
2018-05-29T10:01:16.309Z,8.77
2018-05-29T10:06:36.128Z,13.13
2018-05-29T10:09:09.451Z,9.43
2018-05-29T10:11:40.590Z,6.63
2018-05-29T10:14:10.976Z,8.73
2018-05-29T10:16:41.338Z,7.37
2018-05-29T10:19:11.708Z,8.67
2018-05-29T10:21:42.038Z,6.33
2018-05-29T10:24:14.442Z,6.10
2018-05-29T10:26:44.800Z,6.90
2018-05-29T10:29:15.187Z,6.93
2018-05-29T10:31:45.563Z,9.07
2018-05-29T10:34:17.360Z,4.97
2018-05-29T10:37:07.117Z,5.80
2018-05-29T10:39:37.472Z,6.07
2018-05-29T10:42:08.868Z,6.27
2018-05-29T10:44:40.023Z,6.10
2018-05-29T10:47:10.394Z,6.47
2018-05-29T10:49:42.797Z,7.60
2018-05-29T10:52:15.252Z,8.60
2018-05-29T10:54:47.576Z,8.50
2018-05-29T10:57:17.937Z,5.17
2018-05-29T11:00:10.748Z,5.77
2018-05-29T11:02:41.883Z,6.73
2018-05-29T11:05:13.023Z,7.40
2018-05-29T11:07:44.163Z,6.67
2018-05-29T11:10:15.299Z,5.97
2018-05-29T11:12:45.663Z,5.87
2018-05-29T11:15:16.056Z,6.23
2018-05-29T11:17:46.371Z,5.70
2018-05-29T11:20:16.739Z,4.37
2018-05-29T11:22:47.117Z,5.90
2018-05-29T11:25:17.478Z,6.87
2018-05-29T11:27:47.787Z,5.73
2018-05-29T11:30:18.170Z,5.27
2018-05-29T11:32:52.566Z,6.50
2018-05-29T11:35:22.924Z,5.27
2018-05-29T11:38:12.678Z,6.03
2018-05-29T11:40:43.047Z,8.20
2018-05-29T11:43:13.401Z,7.10
2018-05-29T11:45:43.794Z,6.67
2018-05-29T11:48:14.153Z,7.03
2018-05-29T11:50:45.286Z,5.33
2018-05-29T11:53:15.673Z,6.40
2018-05-29T11:55:50.126Z,5.43
2018-05-29T11:58:20.477Z,6.77
2018-05-29T12:00:51.608Z,5.67
2018-05-29T12:03:22.741Z,5.13
2018-05-29T12:05:53.105Z,6.27
2018-05-29T12:08:23.439Z,9.77
2018-05-29T12:10:53.810Z,10.53
2018-05-29T12:13:24.196Z,6.03
2018-05-29T12:15:54.533Z,7.07
2018-05-29T12:18:31.031Z,6.27
2018-05-29T12:21:02.417Z,9.20
2018-05-29T12:23:33.544Z,8.90
2018-05-29T12:26:04.672Z,7.70
2018-05-29T12:28:35.011Z,7.17
2018-05-29T12:31:05.369Z,6.93
2018-05-29T12:33:35.763Z,7.03
2018-05-29T12:36:06.105Z,5.23
2018-05-29T12:38:37.231Z,5.77
2018-05-29T12:41:07.602Z,5.80
2018-05-29T12:43:38.002Z,5.57
2018-05-29T12:46:08.397Z,5.90
2018-05-29T12:48:40.768Z,7.00
2018-05-29T12:51:11.177Z,6.43
2018-05-29T12:53:42.560Z,6.93
2018-05-29T12:56:12.932Z,6.17
2018-05-29T12:58:43.265Z,11.13
2018-05-29T13:01:20.959Z,8.83
2018-05-29T13:03:51.349Z,9.07
2018-05-29T13:06:22.418Z,8.53
2018-05-29T13:08:52.791Z,9.40
2018-05-29T13:11:23.457Z,6.30
2018-05-29T13:13:54.585Z,9.83
2018-05-29T13:16:25.716Z,9.40
2018-05-29T13:18:56.106Z,7.40
2018-05-29T13:21:29.239Z,8.40
2018-05-29T13:23:59.600Z,6.27
2018-05-29T13:26:29.999Z,8.07
2018-05-29T13:29:01.134Z,8.87
2018-05-29T13:31:31.501Z,8.43
2018-05-29T13:34:01.904Z,7.80
2018-05-29T13:36:33.049Z,7.23
2018-05-29T13:39:03.401Z,8.23
2018-05-29T13:41:34.010Z,6.70
2018-05-29T13:44:05.154Z,6.97
2018-05-29T13:46:36.302Z,4.90
2018-05-29T13:49:07.445Z,8.90
2018-05-29T13:51:38.799Z,6.77
2018-05-29T13:54:09.117Z,5.20
2018-05-29T13:56:42.335Z,7.97
2018-05-29T13:59:12.716Z,7.97
2018-05-29T14:01:43.107Z,11.07
2018-05-29T14:04:33.856Z,8.60
2018-05-29T14:07:05.007Z,4.93
2018-05-29T14:09:36.167Z,7.63
2018-05-29T14:12:06.560Z,4.63
2018-05-29T14:14:36.886Z,9.27
2018-05-29T14:17:07.269Z,7.13
2018-05-29T14:19:39.723Z,5.63
2018-05-29T14:25:00.348Z,8.07
2018-05-29T14:27:30.705Z,6.67
2018-05-29T14:30:01.072Z,6.67
2018-05-29T14:32:32.241Z,7.20
2018-05-29T14:35:02.601Z,8.00
2018-05-29T14:37:32.975Z,6.17
2018-05-29T14:40:04.122Z,8.70
2018-05-29T14:42:35.268Z,7.17
2018-05-29T14:45:06.400Z,5.23
2018-05-29T14:47:37.547Z,7.70
2018-05-29T14:50:08.687Z,5.37
2018-05-29T14:52:39.793Z,6.40
2018-05-29T14:55:11.498Z,6.00
2018-05-29T14:57:41.855Z,6.53
2018-05-29T15:00:16.258Z,7.50
2018-05-29T15:02:46.640Z,7.37
2018-05-29T15:05:17.008Z,5.80
2018-05-29T15:07:47.370Z,5.93
2018-05-29T15:10:17.708Z,8.10
2018-05-29T15:12:48.073Z,6.63
2018-05-29T15:15:18.433Z,5.60
2018-05-29T15:17:52.935Z,5.77
2018-05-29T15:20:23.309Z,5.47
2018-05-29T15:22:53.679Z,6.63
2018-05-29T15:25:24.012Z,7.87
2018-05-29T15:27:54.385Z,7.93
2018-05-29T15:30:24.753Z,6.60
2018-05-29T15:32:55.155Z,7.50
2018-05-29T15:35:25.524Z,5.30
2018-05-29T15:37:55.889Z,8.07
2018-05-29T15:40:26.923Z,7.17
2018-05-29T15:42:59.326Z,6.70
2018-05-29T15:45:37.913Z,4.90
2018-05-29T15:48:10.325Z,6.73
2018-05-29T15:50:40.676Z,7.47
2018-05-29T15:53:11.066Z,6.77
2018-05-29T15:55:42.443Z,4.43
2018-05-29T15:58:13.574Z,9.30
2018-05-29T16:00:44.715Z,7.90
2018-05-29T16:03:15.272Z,7.93
2018-05-29T16:05:45.583Z,6.60
2018-05-29T16:08:17.412Z,7.03
2018-05-29T16:10:47.775Z,6.67
2018-05-29T16:13:18.177Z,6.70
2018-05-29T16:15:48.562Z,7.57
2018-05-29T16:18:18.924Z,5.97
2018-05-29T16:20:49.288Z,7.20
2018-05-29T16:23:19.906Z,7.97
2018-05-29T16:25:53.077Z,6.17
2018-05-29T16:28:23.731Z,7.23
2018-05-29T16:30:56.921Z,6.27
2018-05-29T16:33:28.065Z,6.83
2018-05-29T16:35:58.429Z,8.03
2018-05-29T16:38:33.947Z,6.47
2018-05-29T16:41:04.317Z,5.17
2018-05-29T16:43:34.647Z,7.13
2018-05-29T16:46:05.031Z,5.20
2018-05-29T16:48:35.392Z,4.53
2018-05-29T16:51:06.456Z,5.83
2018-05-29T16:53:38.961Z,6.17
2018-05-29T16:56:09.325Z,7.43
2018-05-29T16:59:00.030Z,7.67
2018-05-29T17:01:30.407Z,8.17
2018-05-29T17:04:00.778Z,8.90
2018-05-29T17:06:31.184Z,7.73
2018-05-29T17:09:02.316Z,8.17
2018-05-29T17:11:32.697Z,7.80
2018-05-29T17:14:23.233Z,5.67
2018-05-29T17:16:54.609Z,5.37
2018-05-29T17:19:25.773Z,6.30
2018-05-29T17:21:56.183Z,6.70
2018-05-29T17:24:26.503Z,6.43
2018-05-29T17:26:57.646Z,8.07
2018-05-29T17:29:28.750Z,5.67
2018-05-29T17:31:59.141Z,6.37
2018-05-29T17:34:30.234Z,7.70
2018-05-29T17:37:00.622Z,5.30
2018-05-29T17:39:35.093Z,8.33
2018-05-29T17:42:05.445Z,7.30
2018-05-29T17:44:36.595Z,8.53
2018-05-29T17:47:07.700Z,7.40
2018-05-29T17:49:38.056Z,7.53
2018-05-29T17:52:08.449Z,9.03
2018-05-29T17:54:38.821Z,5.17
2018-05-29T17:57:09.181Z,7.33
2018-05-29T17:59:40.336Z,9.30
2018-05-29T18:02:12.739Z,5.90
2018-05-29T18:04:44.881Z,4.93
2018-05-29T18:07:15.266Z,3.62
2018-05-29T18:09:46.392Z,3.23
2018-05-29T18:12:16.663Z,5.07
2018-05-29T18:14:47.066Z,2.63
2018-05-29T18:17:20.507Z,5.10
2018-05-29T18:19:50.880Z,5.53
2018-05-29T18:22:21.268Z,4.47
2018-05-29T18:24:51.637Z,7.47
2018-05-29T18:27:22.000Z,8.07
2018-05-29T18:29:52.374Z,2.53
2018-05-29T18:32:22.996Z,2.80
2018-05-29T18:37:36.619Z,4.03
2018-05-29T18:40:06.980Z,4.63
2018-05-29T18:42:38.111Z,3.40
2018-05-29T18:45:08.696Z,4.73
2018-05-29T18:47:39.049Z,4.20
2018-05-29T18:50:09.421Z,2.40
2018-05-29T18:52:39.785Z,3.73
2018-05-29T18:55:10.146Z,3.60
2018-05-29T18:57:47.796Z,5.20
2018-05-29T19:00:18.099Z,3.97
2018-05-29T19:02:48.410Z,6.93
2018-05-29T19:05:19.555Z,4.40
2018-05-29T19:07:49.914Z,2.53
2018-05-29T19:10:40.639Z,4.97
2018-05-29T19:13:11.004Z,3.93
2018-05-29T19:15:41.316Z,4.30
2018-05-29T19:18:11.716Z,5.43
2018-05-29T19:20:42.277Z,2.13
2018-05-29T19:23:13.403Z,2.33
2018-05-29T19:25:43.782Z,5.77
2018-05-29T19:28:14.091Z,3.47
2018-05-29T19:30:44.467Z,4.90
2018-05-29T19:33:14.810Z,2.43
2018-05-29T19:35:45.116Z,3.80
2018-05-29T19:38:15.472Z,5.03
2018-05-29T19:40:46.616Z,3.93
2018-05-29T19:43:18.428Z,4.03
2018-05-29T19:45:49.811Z,2.50
2018-05-29T19:48:20.150Z,2.20
2018-05-29T19:50:50.476Z,4.57
2018-05-29T19:53:20.835Z,1.80
2018-05-29T19:55:51.440Z,2.50
2018-05-29T19:58:22.570Z,2.73
2018-05-29T20:00:53.701Z,2.90
2018-05-29T20:03:33.098Z,3.83
2018-05-29T20:06:04.483Z,3.93
2018-05-29T20:08:34.854Z,3.80
2018-05-29T20:11:05.237Z,2.60
2018-05-29T20:13:35.604Z,2.73
2018-05-29T20:16:05.964Z,3.27
2018-05-29T20:18:56.968Z,8.00
2018-05-29T20:21:47.732Z,3.90
2018-05-29T20:24:18.900Z,2.50
2018-05-29T20:26:49.265Z,3.23
2018-05-29T20:29:19.632Z,2.77
2018-05-29T20:31:50.021Z,2.80
2018-05-29T20:34:20.383Z,4.23
2018-05-29T20:36:51.558Z,3.73
2018-05-29T20:39:21.887Z,4.97
2018-05-29T20:41:59.423Z,2.83
2018-05-29T20:44:29.829Z,3.80
2018-05-29T20:47:00.175Z,6.10
2018-05-29T20:49:30.532Z,4.57
2018-05-29T20:52:00.875Z,3.63
2018-05-29T20:54:31.245Z,4.90
2018-05-29T20:57:01.604Z,4.73
2018-05-29T20:59:32.758Z,4.30
2018-05-29T21:02:03.130Z,3.47
2018-05-29T21:04:33.494Z,4.07
2018-05-29T21:07:04.654Z,4.77
2018-05-29T21:09:34.966Z,2.53
2018-05-29T21:12:06.092Z,2.60
2018-05-29T21:14:36.480Z,5.37
2018-05-29T21:17:06.875Z,2.67
2018-05-29T21:19:37.333Z,4.33
2018-05-29T21:22:26.256Z,3.13
2018-05-29T21:24:58.400Z,3.53
2018-05-29T21:27:30.855Z,4.43
2018-05-29T21:30:01.432Z,3.30
2018-05-29T21:32:31.801Z,3.50
2018-05-29T21:35:23.603Z,8.07
2018-05-29T21:37:54.421Z,4.37
2018-05-29T21:40:24.783Z,5.07
2018-05-29T21:42:55.188Z,2.97
2018-05-29T21:45:27.320Z,3.33
2018-05-29T21:47:57.684Z,5.93
2018-05-29T21:50:28.071Z,3.70
2018-05-29T21:52:58.451Z,4.87
2018-05-29T21:55:32.907Z,4.57
2018-05-29T21:58:03.300Z,3.60
2018-05-29T22:00:33.660Z,4.00
2018-05-29T22:03:04.708Z,4.77
2018-05-29T22:05:35.847Z,4.77
2018-05-29T22:08:06.224Z,3.97
2018-05-29T22:10:36.590Z,5.10
2018-05-29T22:13:06.986Z,4.90
2018-05-29T22:15:39.099Z,4.07
2018-05-29T22:18:09.470Z,5.60
2018-05-29T22:20:40.876Z,6.87
2018-05-29T22:23:11.529Z,5.30
2018-05-29T22:25:42.651Z,5.43
2018-05-29T22:28:13.041Z,3.83
2018-05-29T22:30:50.558Z,4.67
2018-05-29T22:33:21.976Z,6.10
2018-05-29T22:35:52.344Z,3.77
2018-05-29T22:38:22.718Z,5.27
2018-05-29T22:40:53.115Z,4.87
2018-05-29T22:43:24.241Z,5.60
2018-05-29T22:45:54.614Z,4.83
2018-05-29T22:48:25.011Z,6.30
2018-05-29T22:50:55.378Z,5.23
2018-05-29T22:56:18.780Z,5.43
2018-05-29T22:58:52.209Z,6.00
2018-05-29T23:01:23.351Z,5.53
2018-05-29T23:03:53.733Z,4.20
2018-05-29T23:06:28.180Z,5.90
2018-05-29T23:08:58.851Z,6.47
2018-05-29T23:11:29.984Z,6.17
2018-05-29T23:14:00.355Z,6.77
2018-05-29T23:16:31.771Z,5.10
2018-05-29T23:19:02.154Z,5.57
2018-05-29T23:21:34.564Z,6.37
2018-05-29T23:24:05.707Z,4.53
2018-05-29T23:26:36.851Z,5.50
2018-05-29T23:29:07.982Z,5.77
2018-05-29T23:31:38.376Z,5.03
2018-05-29T23:34:08.743Z,4.13
2018-05-29T23:36:39.293Z,4.23
2018-05-29T23:39:10.473Z,6.33
2018-05-29T23:41:40.847Z,6.67
2018-05-29T23:44:11.981Z,6.67
2018-05-29T23:46:42.371Z,8.60
2018-05-29T23:49:20.065Z,8.10
2018-05-29T23:51:54.757Z,6.73
2018-05-29T23:54:25.127Z,7.17
2018-05-29T23:57:03.337Z,5.90
2018-05-29T23:59:37.789Z,5.47
